createdAt,value
2023-03-13T00:03:57.591Z,84.87
2023-03-13T00:14:04.221Z,81.73
2023-03-13T00:24:12.463Z,86.73
2023-03-13T00:34:16.311Z,82.33
2023-03-13T00:44:21.556Z,87.67
2023-03-13T00:54:25.313Z,85.97
2023-03-13T01:04:30.589Z,85.77
2023-03-13T01:14:34.369Z,83.07
2023-03-13T01:24:39.621Z,84.03
2023-03-13T01:34:43.547Z,87.50
2023-03-13T01:44:57.307Z,88.27
2023-03-13T01:55:09.570Z,87.57
2023-03-13T02:05:18.649Z,84.07
2023-03-13T02:15:28.103Z,85.47
2023-03-13T02:25:43.657Z,89.33
2023-03-13T02:35:50.150Z,85.70
2023-03-13T02:46:08.324Z,85.70
2023-03-13T02:56:19.512Z,87.97
2023-03-13T03:06:25.835Z,85.67
2023-03-13T03:16:31.790Z,86.53
2023-03-13T03:26:37.666Z,85.93
2023-03-13T03:36:48.191Z,86.10
2023-03-13T03:46:53.523Z,87.43
2023-03-13T03:56:58.700Z,88.23
2023-03-13T04:07:04.225Z,87.10
2023-03-13T04:17:09.910Z,86.93
2023-03-13T04:27:15.732Z,87.53
2023-03-13T04:37:22.004Z,83.77
2023-03-13T04:47:39.214Z,87.10
2023-03-13T04:58:05.903Z,86.67
2023-03-13T05:08:33.362Z,86.23
2023-03-13T05:19:00.979Z,85.17
2023-03-13T05:29:19.432Z,89.20
2023-03-13T05:39:36.722Z,90.37
2023-03-13T05:49:59.449Z,92.23
2023-03-13T06:00:22.402Z,90.07
2023-03-13T06:10:41.126Z,89.17
2023-03-13T06:20:45.056Z,90.40
2023-03-13T06:30:50.450Z,88.07
2023-03-13T06:40:54.900Z,87.87
2023-03-13T06:51:00.138Z,90.67
2023-03-13T07:01:09.216Z,89.83
2023-03-13T07:11:17.358Z,110.17
2023-03-13T07:21:21.062Z,96.50
2023-03-13T07:31:26.728Z,94.00
2023-03-13T07:41:30.556Z,92.83
2023-03-13T07:51:43.359Z,97.13
2023-03-13T08:01:48.008Z,96.73
2023-03-13T08:11:53.306Z,96.20
2023-03-13T08:21:57.154Z,101.83
2023-03-13T08:32:02.342Z,102.90
2023-03-13T08:42:06.641Z,100.77
2023-03-13T08:52:12.168Z,100.37
2023-03-13T09:23:53.732Z,109.90
2023-03-13T10:12:44.765Z,117.05
2023-03-13T10:22:52.670Z,121.20
2023-03-13T10:33:01.414Z,128.10
2023-03-13T10:43:07.617Z,126.90
2023-03-13T10:53:34.355Z,130.35
2023-03-13T11:03:37.874Z,129.40
2023-03-13T11:13:45.259Z,129.13
2023-03-13T11:23:55.841Z,122.90
2023-03-13T11:34:07.869Z,110.13
2023-03-13T11:44:45.157Z,109.53
2023-03-13T11:55:14.331Z,100.93
2023-03-13T12:05:21.447Z,103.77
2023-03-13T12:15:31.345Z,92.73
2023-03-13T12:25:39.951Z,100.40
2023-03-13T12:35:49.365Z,90.77
2023-03-13T12:46:24.723Z,92.83
2023-03-13T12:56:43.986Z,98.10
2023-03-13T13:07:02.412Z,98.20
2023-03-13T13:17:21.810Z,96.77
2023-03-13T13:27:47.962Z,98.57
2023-03-13T13:37:53.329Z,95.00
2023-03-13T13:48:36.000Z,108.63
2023-03-13T13:58:46.922Z,93.87
2023-03-13T14:08:55.590Z,96.07
2023-03-13T14:19:00.496Z,96.97
2023-03-13T14:29:07.728Z,99.43
2023-03-13T14:39:20.784Z,100.90
2023-03-13T14:49:29.649Z,89.57
2023-03-13T14:59:34.637Z,95.93
2023-03-13T15:09:43.993Z,88.67
2023-03-13T15:19:54.931Z,93.73
2023-03-13T15:29:58.470Z,93.33
2023-03-13T15:40:07.599Z,89.00
2023-03-13T15:50:14.639Z,86.40
2023-03-13T16:00:22.671Z,89.93
2023-03-13T16:10:29.943Z,90.40
2023-03-13T16:20:36.046Z,93.40
2023-03-13T16:30:41.468Z,110.10
2023-03-13T16:40:46.968Z,89.53
2023-03-13T16:50:50.707Z,128.53
2023-03-13T17:01:05.070Z,97.70
2023-03-13T17:11:14.965Z,88.27
2023-03-13T17:21:23.608Z,90.37
2023-03-13T17:31:29.241Z,87.50
2023-03-13T17:41:36.447Z,90.67
2023-03-13T17:51:41.514Z,92.23
2023-03-13T18:01:47.059Z,96.37
2023-03-13T18:11:51.605Z,104.03
2023-03-13T18:21:57.162Z,87.10
2023-03-13T18:32:01.433Z,93.63
2023-03-13T18:42:07.948Z,91.17
2023-03-13T18:52:13.231Z,90.07
2023-03-13T19:02:19.877Z,90.47
2023-03-13T19:12:23.361Z,88.33
2023-03-13T19:22:28.563Z,95.20
2023-03-13T19:32:32.070Z,85.80
2023-03-13T19:42:36.859Z,94.80
2023-03-13T19:52:40.667Z,94.40
2023-03-13T20:02:45.768Z,85.40
2023-03-13T20:12:49.318Z,88.70
2023-03-13T20:22:56.444Z,83.30
2023-03-13T20:33:00.293Z,87.97
2023-03-13T20:43:05.708Z,88.77
2023-03-13T20:53:10.120Z,82.40
2023-03-13T21:03:15.321Z,83.83
2023-03-13T21:13:18.766Z,87.70
2023-03-13T21:23:24.664Z,91.80
2023-03-13T21:33:28.163Z,87.00
2023-03-13T21:43:32.984Z,104.07
2023-03-13T21:53:36.706Z,90.80
2023-03-13T22:03:42.091Z,87.77
2023-03-13T22:13:45.784Z,84.60
2023-03-13T22:23:50.704Z,85.50
2023-03-13T22:33:54.153Z,88.47
2023-03-13T22:43:58.960Z,82.87
2023-03-13T22:54:02.405Z,85.63
2023-03-13T23:04:07.569Z,87.30
2023-03-13T23:14:11.011Z,94.53
2023-03-13T23:24:15.931Z,89.33
2023-03-13T23:34:21.994Z,87.23
2023-03-13T23:44:27.011Z,85.63
2023-03-13T23:54:30.473Z,85.13
